Aérodrome :
LOGIN :

S'inscrire | Disclaimer

   EN    FR    IT 

 










Légende :    VFR   VFR Marginal   IFR   IFR Intensif   IFR Très Intensif
Visi : 
Plafond : 
>= 8 km
>= 3000ft
5 à 8 km
1000 à 3000 ft
1500m à 5 km
500 à 1000 ft
800 à 1500m
200 à 500 ft
< 800m
< 200 ft
Symboles :   Orages  Brouillard  Fortes neiges  Fortes précipitations  Vent > 20 kt
SIGMETs :   Divers  Orages  Givrage  Turbulence  Onde Orograph.  Cendres Volcan.







- Altitude de l'aérodrome : 183 ft
- Code IATA : HAJ


EDDV - Hanover/Langenhagen Int.

DERNIER METAR :
  • 181050Z 15005KT 130V190 9999 BKN020 07/04 Q1024 NOSIG

METARs EXPIRÉS :
  • 181020Z 18006KT 150V210 9999 BKN017 06/03 Q1024 NOSIG
  • 180950Z 17005KT 150V220 9999 BKN016 06/04 Q1024 TEMPO BKN014
  • 180920Z 21008KT 190V250 9999 BKN018 06/04 Q1025 NOSIG
  • 180850Z 21006KT 9999 FEW020 BKN028 06/04 Q1025 NOSIG
  • 180820Z 22005KT 200V260 9999 FEW016 BKN031 06/04 Q1024 NOSIG

TAF TAF EDDV
Valide du 18 à 06h jusqu'au 19 à 06h UTC


180500Z 1806/1906 23006KT 9999 BKN025
TEMPO 1806/1809 SCT008 BKN012
BECMG 1811/1814 14008KT
Pas de NOTAMs connus pour ce terrain.



MET'MAP, la Météo Aéronautique d'un coup d'oeil ! - Copyright ORBIFLY Décembre 2007 - Disclaimer

ORBIFLY MET'MAP TEAM :

Programmation & Développement : Alexandra Zaïnal
Conception & Développement : Baudouin d'Aumeries
Co-Programmation & Développement : Marc-Olivier Méhu
Soutien technique & logistique : Manuel Goepfert

Contact : metmap@orbifly.com




SOURCES & CREDITS :

   NOAA